createdAt,value
2018-07-08T00:01:08.709Z,15.43
2018-07-08T00:03:35.968Z,15.63
2018-07-08T00:06:03.137Z,15.34
2018-07-08T00:08:30.283Z,14.96
2018-07-08T00:10:58.488Z,14.89
2018-07-08T00:13:25.727Z,14.07
2018-07-08T00:15:52.965Z,14.29
2018-07-08T00:18:21.359Z,13.88
2018-07-08T00:20:49.822Z,14.47
2018-07-08T00:23:16.992Z,14.52
2018-07-08T00:25:44.255Z,14.61
2018-07-08T00:28:11.405Z,14.47
2018-07-08T00:30:38.545Z,14.60
2018-07-08T00:33:06.070Z,14.26
2018-07-08T00:35:33.315Z,14.18
2018-07-08T00:38:00.743Z,14.51
2018-07-08T00:40:27.955Z,14.01
2018-07-08T00:42:55.113Z,13.82
2018-07-08T00:45:22.312Z,13.96
2018-07-08T00:47:49.472Z,14.03
2018-07-08T00:50:16.675Z,14.50
2018-07-08T00:52:44.077Z,14.18
2018-07-08T00:55:11.296Z,13.86
2018-07-08T00:57:38.447Z,13.91
2018-07-08T01:00:05.724Z,13.58
2018-07-08T01:02:32.932Z,13.77
2018-07-08T01:05:00.160Z,13.71
2018-07-08T01:07:27.314Z,14.09
2018-07-08T01:09:54.473Z,13.81
2018-07-08T01:12:21.677Z,14.07
2018-07-08T01:14:48.789Z,13.98
2018-07-08T01:17:15.961Z,14.17
2018-07-08T01:19:43.124Z,13.96
2018-07-08T01:22:10.359Z,13.84
2018-07-08T01:24:37.537Z,14.05
2018-07-08T01:27:04.752Z,13.87
2018-07-08T01:29:31.944Z,13.35
2018-07-08T01:31:59.104Z,13.54
2018-07-08T01:34:26.272Z,13.65
2018-07-08T01:36:53.472Z,13.28
2018-07-08T01:39:20.600Z,13.32
2018-07-08T01:41:47.711Z,13.57
2018-07-08T01:44:14.877Z,13.17
2018-07-08T01:46:42.836Z,13.36
2018-07-08T01:49:10.018Z,13.23
2018-07-08T01:51:37.166Z,13.40
2018-07-08T01:54:04.341Z,13.62
2018-07-08T01:56:31.503Z,13.78
2018-07-08T01:58:58.708Z,13.22
2018-07-08T02:01:25.883Z,13.25
2018-07-08T02:03:53.379Z,13.53
2018-07-08T02:06:20.660Z,13.47
2018-07-08T02:08:47.920Z,13.57
2018-07-08T02:11:15.138Z,13.50
2018-07-08T02:13:42.312Z,13.46
2018-07-08T02:16:09.567Z,12.97
2018-07-08T02:18:36.705Z,12.83
2018-07-08T02:21:03.933Z,12.61
2018-07-08T02:23:31.065Z,12.64
2018-07-08T02:25:58.273Z,12.62
2018-07-08T02:28:25.452Z,12.55
2018-07-08T02:30:52.571Z,12.36
2018-07-08T02:33:19.952Z,12.85
2018-07-08T02:35:47.848Z,12.55
2018-07-08T02:38:15.029Z,12.93
2018-07-08T02:40:42.178Z,13.04
2018-07-08T02:43:09.312Z,12.84
2018-07-08T02:45:36.484Z,12.45
2018-07-08T02:48:03.704Z,12.37
2018-07-08T02:50:30.831Z,12.22
2018-07-08T02:52:58.012Z,12.29
2018-07-08T02:55:25.168Z,11.95
2018-07-08T02:57:52.329Z,11.91
2018-07-08T03:00:19.469Z,12.30
2018-07-08T03:02:46.607Z,12.48
2018-07-08T03:05:13.718Z,12.52
2018-07-08T03:07:40.860Z,12.74
2018-07-08T03:10:08.317Z,12.59
2018-07-08T03:12:35.502Z,12.39
2018-07-08T03:15:03.143Z,12.05
2018-07-08T03:17:30.313Z,11.94
2018-07-08T03:19:57.429Z,11.97
2018-07-08T03:22:24.561Z,12.42
2018-07-08T03:24:51.667Z,12.47
2018-07-08T03:27:18.801Z,12.38
2018-07-08T03:29:45.897Z,12.60
2018-07-08T03:32:13.044Z,12.57
2018-07-08T03:34:40.183Z,12.33
2018-07-08T03:37:07.456Z,12.66
2018-07-08T03:39:34.582Z,12.92
2018-07-08T03:42:01.687Z,12.54
2018-07-08T03:44:28.828Z,12.63
2018-07-08T03:46:55.969Z,12.77
2018-07-08T03:49:23.112Z,12.40
2018-07-08T03:51:50.284Z,12.37
2018-07-08T03:54:25.444Z,12.18
2018-07-08T03:56:52.575Z,12.21
2018-07-08T03:59:19.855Z,12.53
2018-07-08T04:01:47.040Z,12.94
2018-07-08T04:04:14.215Z,13.12
2018-07-08T04:06:41.373Z,12.60
2018-07-08T04:09:08.544Z,12.74
2018-07-08T04:11:35.710Z,12.92
2018-07-08T04:14:02.872Z,12.78
2018-07-08T04:16:30.043Z,12.94
2018-07-08T04:18:57.259Z,12.80
2018-07-08T04:21:24.340Z,12.92
2018-07-08T04:23:51.499Z,12.95
2018-07-08T04:26:18.585Z,12.98
2018-07-08T04:28:45.719Z,12.91
2018-07-08T04:31:12.885Z,13.08
2018-07-08T04:33:40.037Z,13.25
2018-07-08T04:36:07.161Z,13.44
2018-07-08T04:38:34.317Z,13.46
2018-07-08T04:41:01.493Z,13.52
2018-07-08T04:43:28.620Z,13.16
2018-07-08T04:45:55.705Z,13.31
2018-07-08T04:48:22.820Z,13.61
2018-07-08T04:50:49.959Z,13.81
2018-07-08T04:53:17.104Z,13.48
2018-07-08T04:55:44.235Z,13.40
2018-07-08T04:58:11.349Z,13.62
2018-07-08T05:00:38.524Z,13.73
2018-07-08T05:03:05.736Z,13.85
2018-07-08T05:05:32.879Z,13.75
2018-07-08T05:08:00.045Z,13.41
2018-07-08T05:10:27.156Z,13.43
2018-07-08T05:12:54.327Z,13.45
2018-07-08T05:15:21.450Z,13.46
2018-07-08T05:17:48.616Z,13.76
2018-07-08T05:20:15.814Z,14.03
2018-07-08T05:22:42.960Z,14.33
2018-07-08T05:25:10.071Z,14.62
2018-07-08T05:27:37.195Z,14.89
2018-07-08T05:30:04.624Z,15.30
2018-07-08T05:32:31.766Z,15.64
2018-07-08T05:34:58.912Z,15.77
2018-07-08T05:37:26.036Z,15.73
2018-07-08T05:39:53.232Z,15.85
2018-07-08T05:42:20.375Z,15.96
2018-07-08T05:44:47.493Z,16.21
2018-07-08T05:47:14.604Z,16.46
2018-07-08T05:49:41.803Z,16.57
2018-07-08T05:52:09.028Z,16.90
2018-07-08T05:54:36.227Z,17.25
2018-07-08T05:57:03.349Z,17.29
2018-07-08T05:59:30.495Z,17.26
2018-07-08T06:01:57.634Z,17.66
2018-07-08T06:04:24.833Z,17.93
2018-07-08T06:06:51.977Z,18.28
2018-07-08T06:09:19.124Z,18.16
2018-07-08T06:11:46.289Z,17.95
2018-07-08T06:14:13.464Z,18.32
2018-07-08T06:16:40.610Z,18.62
2018-07-08T06:19:07.754Z,18.75
2018-07-08T06:21:34.912Z,19.08
2018-07-08T06:24:02.095Z,18.70
2018-07-08T06:26:29.244Z,18.54
2018-07-08T06:28:56.394Z,18.90
2018-07-08T06:31:23.606Z,19.30
2018-07-08T06:33:50.826Z,19.62
2018-07-08T06:36:17.931Z,19.77
2018-07-08T06:38:45.105Z,19.76
2018-07-08T06:41:12.289Z,19.82
2018-07-08T06:43:39.476Z,19.97
2018-07-08T06:46:06.649Z,20.17
2018-07-08T06:48:33.816Z,20.28
2018-07-08T06:51:01.013Z,19.98
2018-07-08T06:53:28.108Z,19.54
2018-07-08T06:55:55.296Z,20.23
2018-07-08T06:58:22.576Z,20.34
2018-07-08T07:00:49.690Z,20.46
2018-07-08T07:03:16.847Z,20.76
2018-07-08T07:05:44.033Z,20.78
2018-07-08T07:08:11.165Z,20.63
2018-07-08T07:10:38.320Z,20.80
2018-07-08T07:13:05.616Z,20.53
2018-07-08T07:15:32.764Z,20.03
2018-07-08T07:17:59.865Z,19.81
2018-07-08T07:20:27.155Z,20.60
2018-07-08T07:23:01.265Z,20.17
2018-07-08T07:25:28.452Z,20.65
2018-07-08T07:27:55.644Z,20.32
2018-07-08T07:30:22.856Z,21.07
2018-07-08T07:32:50.065Z,20.89
2018-07-08T07:35:17.246Z,21.71
2018-07-08T07:37:44.482Z,22.27
2018-07-08T07:40:11.700Z,21.73
2018-07-08T07:42:38.837Z,21.99
2018-07-08T07:45:06.595Z,21.35
2018-07-08T07:47:33.704Z,21.15
2018-07-08T07:50:00.892Z,21.29
2018-07-08T07:52:28.084Z,21.28
2018-07-08T07:54:55.230Z,21.14
2018-07-08T07:57:22.357Z,21.14
2018-07-08T07:59:49.542Z,20.82
2018-07-08T08:02:16.694Z,21.32
2018-07-08T08:04:43.809Z,21.40
2018-07-08T08:07:10.957Z,22.34
2018-07-08T08:09:38.155Z,22.16
2018-07-08T08:12:05.382Z,22.18
2018-07-08T08:14:32.594Z,22.21
2018-07-08T08:16:59.727Z,22.57
2018-07-08T08:19:26.856Z,22.78
2018-07-08T08:21:54.325Z,22.40
2018-07-08T08:24:21.517Z,22.25
2018-07-08T08:26:48.696Z,22.70
2018-07-08T08:29:15.831Z,22.74
2018-07-08T08:31:42.996Z,22.79
2018-07-08T08:35:14.869Z,22.30
2018-07-08T08:37:43.250Z,23.03
2018-07-08T08:40:11.136Z,23.00
2018-07-08T08:42:38.336Z,22.81
2018-07-08T08:45:06.800Z,22.63
2018-07-08T08:47:34.026Z,22.76
2018-07-08T08:50:01.236Z,22.70
2018-07-08T08:52:28.403Z,22.89
2018-07-08T08:54:55.983Z,22.62
2018-07-08T08:57:23.100Z,23.12
2018-07-08T08:59:50.231Z,22.34
2018-07-08T09:02:17.424Z,22.72
2018-07-08T09:04:44.906Z,22.40
2018-07-08T09:20:18.277Z,22.48
2018-07-08T09:22:45.419Z,23.28
2018-07-08T09:25:12.525Z,22.53
2018-07-08T09:27:39.732Z,22.68
2018-07-08T09:30:06.972Z,22.62
2018-07-08T09:32:34.145Z,23.27
2018-07-08T09:35:01.299Z,23.73
2018-07-08T09:37:28.465Z,23.36
2018-07-08T09:39:55.609Z,23.66
2018-07-08T09:42:22.773Z,23.67
2018-07-08T09:44:49.940Z,23.78
2018-07-08T09:47:17.084Z,23.51
2018-07-08T09:49:44.220Z,23.84
2018-07-08T09:52:11.352Z,23.61
2018-07-08T09:54:38.498Z,23.21
2018-07-08T09:57:05.686Z,23.65
2018-07-08T09:59:32.816Z,24.03
2018-07-08T10:01:59.956Z,23.85
2018-07-08T10:04:27.191Z,24.16
2018-07-08T10:06:54.672Z,24.00
2018-07-08T10:09:22.944Z,24.52
2018-07-08T10:11:50.123Z,23.49
2018-07-08T10:14:18.676Z,24.65
2018-07-08T10:16:45.793Z,24.72
2018-07-08T10:19:14.040Z,24.56
2018-07-08T10:21:41.149Z,24.72
2018-07-08T10:24:08.521Z,24.03
2018-07-08T10:26:42.579Z,23.86
2018-07-08T10:29:13.926Z,24.16
2018-07-08T10:31:49.508Z,24.09
2018-07-08T10:34:16.987Z,24.25
2018-07-08T10:36:44.295Z,24.71
2018-07-08T10:39:12.636Z,25.11
2018-07-08T10:41:40.231Z,24.68
2018-07-08T10:44:07.413Z,24.45
2018-07-08T10:46:34.599Z,24.55
2018-07-08T10:49:01.853Z,25.04
2018-07-08T10:51:29.004Z,24.85
2018-07-08T10:53:56.225Z,25.30
2018-07-08T10:56:23.484Z,25.24
2018-07-08T10:58:50.784Z,25.51
2018-07-08T11:01:17.953Z,25.06
2018-07-08T11:03:45.204Z,25.44
2018-07-08T11:06:12.494Z,25.48
2018-07-08T11:08:39.713Z,25.17
2018-07-08T11:11:06.852Z,25.79
2018-07-08T11:13:34.040Z,25.49
2018-07-08T11:16:01.187Z,25.52
2018-07-08T11:18:28.282Z,25.08
2018-07-08T11:20:55.452Z,25.96
2018-07-08T11:23:22.580Z,26.20
2018-07-08T11:25:49.721Z,26.00
2018-07-08T11:28:16.812Z,26.30
2018-07-08T11:30:43.953Z,26.42
2018-07-08T11:33:11.124Z,26.07
2018-07-08T11:35:38.294Z,25.59
2018-07-08T11:38:05.705Z,25.70
2018-07-08T11:40:33.285Z,26.23
2018-07-08T11:43:00.546Z,26.84
2018-07-08T11:45:27.671Z,26.42
2018-07-08T11:47:54.837Z,25.85
2018-07-08T11:50:21.962Z,26.29
2018-07-08T11:52:49.136Z,26.83
2018-07-08T11:55:16.334Z,26.01
2018-07-08T11:57:43.432Z,26.17
2018-07-08T12:00:10.580Z,26.01
2018-07-08T12:02:37.768Z,26.41
2018-07-08T12:05:05.097Z,26.79
2018-07-08T12:07:32.265Z,26.85
2018-07-08T12:09:59.393Z,28.04
2018-07-08T12:12:26.647Z,27.48
2018-07-08T12:14:53.793Z,27.70
2018-07-08T12:17:20.921Z,26.59
2018-07-08T12:19:48.121Z,26.29
2018-07-08T12:22:15.384Z,26.05
2018-07-08T12:24:42.540Z,26.70
2018-07-08T12:27:09.726Z,26.57
2018-07-08T12:29:36.884Z,27.44
2018-07-08T12:32:04.233Z,27.35
2018-07-08T12:34:31.406Z,27.58
2018-07-08T12:36:58.629Z,27.14
2018-07-08T12:39:25.801Z,26.85
2018-07-08T12:41:52.946Z,26.70
2018-07-08T12:44:20.165Z,26.73
2018-07-08T12:46:47.264Z,26.33
2018-07-08T12:49:14.458Z,25.93
2018-07-08T12:51:41.638Z,26.45
2018-07-08T12:54:08.827Z,25.84
2018-07-08T12:56:36.009Z,25.57
2018-07-08T12:59:03.360Z,25.99
2018-07-08T13:01:30.419Z,26.43
2018-07-08T13:03:57.676Z,27.75
2018-07-08T13:06:24.876Z,27.70
2018-07-08T13:08:52.053Z,28.26
2018-07-08T13:11:19.231Z,27.80
2018-07-08T13:13:46.452Z,28.00
2018-07-08T13:16:13.597Z,27.31
2018-07-08T13:18:40.786Z,26.84
2018-07-08T13:21:07.923Z,26.18
2018-07-08T13:23:35.121Z,27.06
2018-07-08T13:26:02.288Z,27.00
2018-07-08T13:28:30.086Z,27.55
2018-07-08T13:30:58.337Z,27.07
2018-07-08T13:33:25.828Z,27.79
2018-07-08T13:35:52.996Z,26.58
2018-07-08T13:38:20.142Z,27.21
2018-07-08T13:40:47.584Z,27.63
2018-07-08T13:43:14.720Z,27.53
2018-07-08T13:45:44.939Z,28.23
2018-07-08T13:48:12.247Z,28.26
2018-07-08T13:50:39.745Z,27.55
2018-07-08T13:53:07.223Z,27.38
2018-07-08T13:55:34.482Z,27.43
2018-07-08T13:58:01.679Z,28.03
2018-07-08T14:00:28.864Z,27.70
2018-07-08T14:02:56.182Z,26.26
2018-07-08T14:05:23.376Z,26.86
2018-07-08T14:07:50.610Z,27.79
2018-07-08T14:10:17.800Z,28.03
2018-07-08T14:12:45.025Z,28.17
2018-07-08T14:15:12.195Z,28.33
2018-07-08T14:17:39.437Z,28.40
2018-07-08T14:20:06.660Z,28.14
2018-07-08T14:22:33.809Z,26.67
2018-07-08T14:25:00.979Z,26.01
2018-07-08T14:27:28.175Z,25.41
2018-07-08T14:29:55.407Z,25.60
2018-07-08T14:32:22.596Z,25.70
2018-07-08T14:34:49.801Z,26.55
2018-07-08T14:37:16.896Z,27.16
2018-07-08T14:39:44.090Z,27.58
2018-07-08T14:42:11.248Z,28.26
2018-07-08T14:44:38.508Z,28.25
2018-07-08T14:47:05.695Z,28.11
2018-07-08T14:49:35.101Z,28.04
2018-07-08T14:52:04.209Z,28.36
2018-07-08T14:54:31.416Z,28.50
2018-07-08T14:56:58.712Z,27.91
2018-07-08T14:59:25.947Z,27.88
2018-07-08T15:01:53.125Z,27.35
2018-07-08T15:04:20.319Z,28.08
2018-07-08T15:06:47.493Z,28.06
2018-07-08T15:09:14.716Z,28.15
2018-07-08T15:11:41.890Z,27.81
2018-07-08T15:14:09.472Z,27.70
2018-07-08T15:16:36.625Z,26.60
2018-07-08T15:19:04.323Z,26.25
2018-07-08T15:21:31.595Z,27.03
2018-07-08T15:23:58.782Z,27.68
2018-07-08T15:26:25.911Z,28.37
2018-07-08T15:28:53.076Z,27.50
2018-07-08T15:31:20.488Z,27.34
2018-07-08T15:33:47.786Z,27.49
2018-07-08T15:36:14.970Z,27.12
2018-07-08T15:38:42.104Z,26.85
2018-07-08T15:41:09.257Z,26.94
2018-07-08T15:43:36.421Z,27.12
2018-07-08T15:46:03.647Z,27.24
2018-07-08T15:48:31.140Z,27.35
2018-07-08T15:50:58.395Z,26.84
2018-07-08T15:53:25.527Z,26.86
2018-07-08T15:55:52.740Z,26.71
2018-07-08T15:58:26.699Z,26.96
2018-07-08T16:00:53.841Z,26.84
2018-07-08T16:03:21.032Z,26.47
2018-07-08T16:05:48.187Z,26.09
2018-07-08T16:08:15.368Z,26.05
2018-07-08T16:10:42.538Z,25.83
2018-07-08T16:13:09.665Z,26.32
2018-07-08T16:15:36.856Z,25.73
2018-07-08T16:18:04.072Z,26.29
2018-07-08T16:20:31.288Z,26.40
2018-07-08T16:22:58.435Z,26.57
2018-07-08T16:25:25.580Z,25.60
2018-07-08T16:27:52.836Z,25.64
2018-07-08T16:30:20.015Z,25.69
2018-07-08T16:32:47.171Z,25.40
2018-07-08T16:35:14.332Z,25.73
2018-07-08T16:37:41.512Z,25.46
2018-07-08T16:40:11.754Z,25.51
2018-07-08T16:42:38.892Z,25.67
2018-07-08T16:45:06.073Z,25.34
2018-07-08T16:47:33.228Z,25.44
2018-07-08T16:50:00.472Z,25.38
2018-07-08T16:52:27.641Z,25.25
2018-07-08T16:54:54.811Z,25.17
2018-07-08T16:57:22.028Z,25.29
2018-07-08T16:59:49.667Z,25.44
2018-07-08T17:02:16.942Z,25.04
2018-07-08T17:04:44.009Z,24.79
2018-07-08T17:07:11.196Z,24.71
2018-07-08T17:09:38.359Z,24.73
2018-07-08T17:12:06.044Z,24.85
2018-07-08T17:14:33.238Z,25.05
2018-07-08T17:17:00.385Z,24.92
2018-07-08T17:19:27.574Z,25.13
2018-07-08T17:21:55.259Z,24.97
2018-07-08T17:24:22.420Z,24.73
2018-07-08T17:26:49.624Z,24.57
2018-07-08T17:29:16.817Z,24.62
2018-07-08T17:31:43.994Z,24.53
2018-07-08T17:34:11.236Z,24.56
2018-07-08T17:36:38.444Z,24.38
2018-07-08T17:39:06.645Z,24.58
2018-07-08T17:41:34.262Z,24.41
2018-07-08T17:44:01.374Z,24.41
2018-07-08T17:46:28.636Z,24.40
2018-07-08T17:48:55.777Z,24.42
2018-07-08T17:51:22.920Z,24.30
2018-07-08T17:53:50.151Z,24.08
2018-07-08T17:56:17.299Z,23.90
2018-07-08T17:58:44.527Z,23.68
2018-07-08T18:01:11.727Z,23.94
2018-07-08T18:03:38.892Z,23.95
2018-07-08T18:06:06.056Z,23.83
2018-07-08T18:08:33.882Z,23.61
2018-07-08T18:11:01.142Z,23.65
2018-07-08T18:13:28.391Z,23.58
2018-07-08T18:15:55.620Z,23.70
2018-07-08T18:18:22.775Z,23.66
2018-07-08T18:20:49.970Z,23.64
2018-07-08T18:23:17.149Z,23.70
2018-07-08T18:25:44.332Z,23.58
2018-07-08T18:28:11.430Z,23.54
2018-07-08T18:30:38.972Z,23.58
2018-07-08T18:33:12.992Z,23.55
2018-07-08T18:35:40.263Z,23.62
2018-07-08T18:38:07.436Z,23.64
2018-07-08T18:40:34.737Z,23.18
2018-07-08T18:43:01.894Z,23.18
2018-07-08T18:45:29.073Z,23.02
2018-07-08T18:47:56.242Z,23.04
2018-07-08T18:50:23.432Z,23.06
2018-07-08T18:52:50.614Z,22.82
2018-07-08T18:55:17.763Z,22.97
2018-07-08T18:57:44.932Z,22.83
2018-07-08T19:00:12.103Z,22.74
2018-07-08T19:02:39.245Z,22.62
2018-07-08T19:05:06.503Z,22.65
2018-07-08T19:07:33.892Z,22.63
2018-07-08T19:10:01.120Z,22.53
2018-07-08T19:12:28.392Z,22.56
2018-07-08T19:14:55.597Z,22.54
2018-07-08T19:17:22.743Z,22.31
2018-07-08T19:19:49.890Z,22.45
2018-07-08T19:22:17.033Z,22.44
2018-07-08T19:24:44.231Z,22.35
2018-07-08T19:27:11.412Z,22.37
2018-07-08T19:29:38.583Z,22.11
2018-07-08T19:32:05.800Z,22.17
2018-07-08T19:34:33.036Z,22.21
2018-07-08T19:37:00.286Z,21.71
2018-07-08T19:39:27.521Z,21.76
2018-07-08T19:41:54.771Z,21.96
2018-07-08T19:44:22.010Z,21.82
2018-07-08T19:46:49.110Z,21.74
2018-07-08T19:49:16.323Z,21.35
2018-07-08T19:51:43.527Z,21.39
2018-07-08T19:54:10.709Z,21.23
2018-07-08T19:56:37.907Z,21.22
2018-07-08T19:59:05.178Z,21.17
2018-07-08T20:01:32.372Z,21.02
2018-07-08T20:03:59.547Z,20.61
2018-07-08T20:06:26.716Z,20.52
2018-07-08T20:08:53.877Z,20.50
2018-07-08T20:11:21.112Z,20.54
2018-07-08T20:13:48.287Z,20.58
2018-07-08T20:16:15.518Z,20.48
2018-07-08T20:18:42.605Z,20.50
2018-07-08T20:21:09.843Z,20.47
2018-07-08T20:23:37.195Z,20.35
2018-07-08T20:26:04.441Z,20.29
2018-07-08T20:28:31.732Z,19.93
2018-07-08T20:30:59.077Z,19.77
2018-07-08T20:33:28.868Z,19.67
2018-07-08T20:35:56.368Z,19.90
2018-07-08T20:38:23.565Z,19.95
2018-07-08T20:40:50.734Z,19.65
2018-07-08T20:43:17.880Z,19.82
2018-07-08T20:45:45.089Z,19.74
2018-07-08T20:48:12.315Z,19.46
2018-07-08T20:50:39.491Z,19.76
2018-07-08T20:53:06.680Z,19.58
2018-07-08T20:55:33.925Z,19.57
2018-07-08T20:58:01.082Z,19.41
2018-07-08T21:00:28.274Z,19.54
2018-07-08T21:02:55.440Z,19.48
2018-07-08T21:05:22.692Z,19.29
2018-07-08T21:07:50.044Z,19.38
2018-07-08T21:10:17.177Z,19.44
2018-07-08T21:12:44.374Z,19.42
2018-07-08T21:15:11.552Z,19.58
2018-07-08T21:17:38.712Z,19.57
2018-07-08T21:20:06.352Z,19.43
2018-07-08T21:22:33.457Z,19.33
2018-07-08T21:25:00.573Z,19.12
2018-07-08T21:27:27.712Z,19.17
2018-07-08T21:29:54.849Z,19.02
2018-07-08T21:32:21.985Z,18.95
2018-07-08T21:34:49.148Z,19.04
2018-07-08T21:37:16.556Z,18.68
2018-07-08T21:39:43.684Z,18.57
2018-07-08T21:42:10.821Z,18.57
2018-07-08T21:44:38.208Z,18.06
2018-07-08T21:47:05.356Z,18.10
2018-07-08T21:49:32.461Z,18.47
2018-07-08T21:51:59.659Z,18.41
2018-07-08T21:54:26.787Z,18.39
2018-07-08T21:56:53.912Z,18.40
2018-07-08T21:59:21.077Z,18.54
2018-07-08T22:01:57.828Z,18.44
2018-07-08T22:04:25.030Z,18.60
2018-07-08T22:06:52.211Z,18.60
2018-07-08T22:09:19.329Z,18.34
2018-07-08T22:11:46.528Z,18.43
2018-07-08T22:14:13.674Z,18.35
2018-07-08T22:16:40.878Z,18.14
2018-07-08T22:19:08.115Z,18.27
2018-07-08T22:21:35.271Z,18.52
2018-07-08T22:24:02.402Z,18.61
2018-07-08T22:26:29.522Z,18.54
2018-07-08T22:28:56.777Z,18.09
2018-07-08T22:31:30.837Z,18.25
2018-07-08T22:33:57.988Z,18.17
2018-07-08T22:36:25.134Z,18.12
2018-07-08T22:38:52.264Z,18.20
2018-07-08T22:41:19.427Z,18.15
2018-07-08T22:43:46.589Z,18.11
2018-07-08T22:46:13.712Z,17.81
2018-07-08T22:48:40.903Z,17.42
2018-07-08T22:51:08.053Z,17.49
2018-07-08T22:53:35.471Z,17.62
2018-07-08T22:56:02.653Z,17.33
2018-07-08T22:58:29.799Z,16.94
2018-07-08T23:01:08.584Z,16.70
2018-07-08T23:03:42.625Z,16.22
2018-07-08T23:06:09.805Z,16.22
2018-07-08T23:08:36.938Z,16.35
2018-07-08T23:11:04.136Z,16.20
2018-07-08T23:13:31.329Z,16.54
2018-07-08T23:15:58.515Z,16.66
2018-07-08T23:18:25.725Z,16.48
2018-07-08T23:20:52.873Z,16.42
2018-07-08T23:23:20.065Z,16.38
2018-07-08T23:25:47.458Z,16.38
2018-07-08T23:28:14.620Z,16.51
2018-07-08T23:30:41.733Z,16.44
2018-07-08T23:33:08.897Z,16.61
2018-07-08T23:35:36.082Z,16.62
2018-07-08T23:38:03.340Z,16.81
2018-07-08T23:40:30.508Z,16.57
2018-07-08T23:42:57.640Z,16.70
2018-07-08T23:45:24.822Z,16.79
2018-07-08T23:47:51.977Z,16.84
2018-07-08T23:50:19.092Z,16.18
2018-07-08T23:52:46.281Z,16.59
2018-07-08T23:55:13.506Z,16.70
2018-07-08T23:57:40.649Z,16.50
